createdAt,value
2024-01-21T00:01:59.429Z,20.79
2024-01-21T00:04:26.703Z,20.76
2024-01-21T00:06:55.310Z,20.75
2024-01-21T00:09:22.557Z,20.74
2024-01-21T00:11:49.788Z,20.75
2024-01-21T00:14:16.988Z,20.73
2024-01-21T00:16:44.202Z,20.69
2024-01-21T00:19:11.521Z,20.64
2024-01-21T00:21:38.769Z,20.62
2024-01-21T00:24:07.484Z,20.60
2024-01-21T00:26:34.733Z,20.60
2024-01-21T00:29:01.984Z,20.60
2024-01-21T00:31:29.262Z,20.57
2024-01-21T00:33:56.630Z,20.62
2024-01-21T00:36:23.885Z,20.61
2024-01-21T00:38:51.133Z,20.62
2024-01-21T00:41:19.668Z,20.58
2024-01-21T00:43:46.815Z,20.66
2024-01-21T00:46:13.978Z,20.61
2024-01-21T00:48:41.544Z,20.62
2024-01-21T00:51:08.802Z,20.61
2024-01-21T00:53:35.992Z,20.59
2024-01-21T00:56:03.256Z,20.53
2024-01-21T00:58:31.756Z,20.58
2024-01-21T01:00:59.049Z,20.47
2024-01-21T01:03:26.386Z,20.58
2024-01-21T01:05:53.581Z,20.54
2024-01-21T01:08:20.756Z,20.54
2024-01-21T01:10:47.979Z,20.54
2024-01-21T01:13:15.331Z,20.51
2024-01-21T01:15:43.972Z,20.38
2024-01-21T01:18:11.536Z,20.43
2024-01-21T01:20:38.800Z,20.43
2024-01-21T01:23:05.951Z,20.44
2024-01-21T01:25:33.132Z,20.45
2024-01-21T01:28:00.413Z,20.48
2024-01-21T01:30:27.626Z,20.43
2024-01-21T01:32:56.312Z,20.45
2024-01-21T01:35:23.530Z,20.49
2024-01-21T01:37:50.721Z,20.48
2024-01-21T01:40:17.905Z,20.49
2024-01-21T01:42:45.091Z,20.44
2024-01-21T01:45:12.328Z,20.48
2024-01-21T01:47:39.535Z,20.47
2024-01-21T01:50:08.489Z,20.43
2024-01-21T01:52:35.684Z,20.43
2024-01-21T01:55:02.939Z,20.40
2024-01-21T01:57:31.419Z,20.37
2024-01-21T01:59:58.604Z,20.37
2024-01-21T02:02:25.846Z,20.37
2024-01-21T02:04:54.018Z,20.22
2024-01-21T02:07:22.560Z,20.33
2024-01-21T02:09:50.323Z,20.33
2024-01-21T02:12:19.281Z,20.31
2024-01-21T02:14:46.469Z,20.30
2024-01-21T02:17:13.670Z,20.34
2024-01-21T02:19:40.934Z,20.42
2024-01-21T02:22:08.166Z,20.40
2024-01-21T02:24:36.740Z,20.45
2024-01-21T02:27:04.536Z,20.60
2024-01-21T02:29:31.930Z,20.74
2024-01-21T02:32:00.805Z,21.27
2024-01-21T02:34:28.114Z,21.67
2024-01-21T02:36:55.401Z,21.99
2024-01-21T02:39:22.733Z,22.28
2024-01-21T02:41:51.352Z,22.40
2024-01-21T02:44:18.549Z,22.56
2024-01-21T02:46:45.831Z,22.67
2024-01-21T02:49:13.338Z,22.48
2024-01-21T02:51:40.678Z,22.70
2024-01-21T02:54:07.912Z,22.67
2024-01-21T02:56:35.106Z,22.62
2024-01-21T02:59:03.643Z,22.58
2024-01-21T03:01:33.550Z,22.55
2024-01-21T03:04:00.785Z,22.48
2024-01-21T03:06:28.204Z,22.41
2024-01-21T03:08:55.440Z,22.28
2024-01-21T03:11:22.605Z,22.12
2024-01-21T03:13:49.844Z,22.05
2024-01-21T03:16:18.480Z,21.99
2024-01-21T03:18:45.919Z,21.90
2024-01-21T03:21:13.274Z,21.81
2024-01-21T03:23:40.476Z,21.73
2024-01-21T03:26:07.689Z,21.72
2024-01-21T03:28:34.946Z,21.69
2024-01-21T03:31:02.166Z,21.67
2024-01-21T03:33:31.208Z,21.68
2024-01-21T03:35:58.566Z,21.63
2024-01-21T03:38:25.764Z,21.60
2024-01-21T03:40:53.014Z,21.52
2024-01-21T03:43:20.212Z,21.46
2024-01-21T03:45:47.457Z,21.45
2024-01-21T03:48:15.147Z,21.57
2024-01-21T03:50:43.912Z,21.76
2024-01-21T03:53:11.241Z,22.06
2024-01-21T03:55:38.447Z,22.23
2024-01-21T03:58:05.656Z,22.39
2024-01-21T04:00:32.974Z,22.56
2024-01-21T04:03:00.178Z,22.78
2024-01-21T04:05:27.414Z,22.87
2024-01-21T04:07:56.015Z,22.84
2024-01-21T04:10:23.211Z,22.88
2024-01-21T04:12:50.408Z,22.81
2024-01-21T04:15:17.695Z,22.76
2024-01-21T04:17:44.989Z,22.68
2024-01-21T04:20:12.489Z,22.66
2024-01-21T04:22:39.679Z,22.63
2024-01-21T04:25:08.908Z,22.56
2024-01-21T04:27:36.149Z,22.48
2024-01-21T04:30:03.959Z,22.39
2024-01-21T04:32:31.167Z,22.26
2024-01-21T04:34:58.381Z,22.22
2024-01-21T04:37:25.571Z,22.22
2024-01-21T04:39:52.797Z,22.18
2024-01-21T04:42:21.429Z,22.17
2024-01-21T04:44:48.746Z,22.06
2024-01-21T04:47:15.995Z,21.98
2024-01-21T04:49:43.207Z,21.93
2024-01-21T04:52:10.972Z,21.94
2024-01-21T04:54:38.288Z,21.89
2024-01-21T04:57:05.985Z,21.79
2024-01-21T04:59:34.536Z,21.73
2024-01-21T05:02:01.834Z,21.69
2024-01-21T05:04:29.137Z,21.62
2024-01-21T05:06:56.545Z,21.61
2024-01-21T05:09:26.717Z,21.83
2024-01-21T05:11:53.901Z,22.09
2024-01-21T05:14:21.141Z,22.28
2024-01-21T05:16:49.649Z,22.46
2024-01-21T05:19:16.830Z,22.61
2024-01-21T05:21:44.167Z,22.88
2024-01-21T05:24:11.590Z,22.87
2024-01-21T05:26:43.726Z,23.19
2024-01-21T05:29:11.119Z,23.19
2024-01-21T05:31:38.365Z,23.17
2024-01-21T05:34:06.986Z,23.16
2024-01-21T05:36:34.283Z,23.11
2024-01-21T05:39:01.500Z,23.10
2024-01-21T05:41:28.694Z,23.05
2024-01-21T05:43:56.006Z,22.99
2024-01-21T05:46:23.269Z,22.92
2024-01-21T05:48:50.649Z,22.85
2024-01-21T05:51:19.378Z,22.73
2024-01-21T05:53:46.581Z,22.64
2024-01-21T05:56:13.828Z,22.49
2024-01-21T05:58:41.155Z,22.25
2024-01-21T06:01:08.515Z,22.37
2024-01-21T06:03:35.928Z,22.32
2024-01-21T06:06:03.402Z,22.23
2024-01-21T06:08:31.951Z,22.19
2024-01-21T06:10:59.236Z,22.15
2024-01-21T06:13:26.423Z,22.14
2024-01-21T06:15:53.771Z,22.02
2024-01-21T06:18:21.342Z,22.15
2024-01-21T06:20:48.631Z,22.10
2024-01-21T06:23:15.810Z,21.86
2024-01-21T06:25:44.593Z,21.95
2024-01-21T06:28:11.785Z,21.96
2024-01-21T06:30:39.021Z,21.90
2024-01-21T06:33:06.459Z,21.92
2024-01-21T06:35:33.693Z,22.10
2024-01-21T06:38:00.929Z,22.24
2024-01-21T06:40:28.128Z,22.38
2024-01-21T06:42:56.674Z,22.65
2024-01-21T06:45:23.939Z,23.00
2024-01-21T06:47:52.065Z,23.32
2024-01-21T06:50:19.627Z,23.62
2024-01-21T06:52:46.817Z,23.78
2024-01-21T06:55:14.332Z,23.97
2024-01-21T06:57:41.713Z,24.01
2024-01-21T07:00:11.762Z,23.98
2024-01-21T07:02:39.199Z,23.96
2024-01-21T07:05:06.991Z,23.87
2024-01-21T07:07:34.172Z,23.82
2024-01-21T07:10:01.421Z,23.75
2024-01-21T07:12:28.603Z,23.70
2024-01-21T07:14:55.803Z,23.57
2024-01-21T07:17:24.473Z,23.52
2024-01-21T07:19:51.665Z,23.46
2024-01-21T07:22:18.911Z,23.37
2024-01-21T07:24:46.319Z,23.29
2024-01-21T07:27:13.889Z,23.17
2024-01-21T07:29:41.354Z,23.07
2024-01-21T07:32:08.563Z,22.97
2024-01-21T07:34:37.254Z,22.72
2024-01-21T07:37:04.502Z,22.88
2024-01-21T07:39:31.781Z,22.80
2024-01-21T07:41:58.995Z,22.76
2024-01-21T07:44:26.183Z,22.64
2024-01-21T07:46:53.415Z,22.58
2024-01-21T07:49:20.673Z,22.47
2024-01-21T07:51:49.370Z,22.40
2024-01-21T07:54:16.649Z,22.39
2024-01-21T07:56:43.834Z,22.37
2024-01-21T07:59:11.223Z,22.31
2024-01-21T08:01:39.972Z,22.27
2024-01-21T08:04:08.541Z,22.26
2024-01-21T08:06:35.852Z,22.25
2024-01-21T08:09:04.416Z,22.17
2024-01-21T08:11:31.579Z,22.24
2024-01-21T08:13:58.882Z,22.20
2024-01-21T08:16:26.174Z,22.22
2024-01-21T08:18:53.520Z,22.21
2024-01-21T08:21:20.855Z,22.19
2024-01-21T08:23:48.185Z,22.47
2024-01-21T08:26:16.956Z,22.60
2024-01-21T08:28:44.182Z,22.69
2024-01-21T08:31:11.513Z,22.79
2024-01-21T08:33:38.837Z,22.98
2024-01-21T08:36:06.694Z,23.07
2024-01-21T08:38:33.934Z,23.25
2024-01-21T08:41:01.176Z,23.38
2024-01-21T08:43:29.811Z,23.47
2024-01-21T08:45:57.232Z,23.50
2024-01-21T08:48:26.002Z,23.68
2024-01-21T08:50:53.284Z,23.69
2024-01-21T08:53:20.486Z,23.70
2024-01-21T08:55:47.679Z,23.65
2024-01-21T08:58:14.889Z,23.61
2024-01-21T09:00:43.724Z,23.57
2024-01-21T09:03:11.204Z,23.57
2024-01-21T09:05:38.510Z,23.54
2024-01-21T09:08:06.018Z,23.45
2024-01-21T09:10:33.216Z,23.45
2024-01-21T09:13:00.442Z,23.41
2024-01-21T09:15:27.703Z,23.37
2024-01-21T09:17:56.447Z,23.30
2024-01-21T09:20:23.813Z,23.22
2024-01-21T09:22:51.074Z,23.22
2024-01-21T09:25:18.296Z,23.15
2024-01-21T09:27:45.545Z,23.13
2024-01-21T09:30:13.723Z,23.06
2024-01-21T09:32:41.019Z,23.03
2024-01-21T09:35:09.953Z,22.93
2024-01-21T09:37:37.366Z,22.93
2024-01-21T09:40:05.447Z,22.88
2024-01-21T09:42:32.825Z,22.80
2024-01-21T09:45:00.129Z,22.81
2024-01-21T09:47:27.518Z,22.91
2024-01-21T09:49:56.015Z,23.10
2024-01-21T09:52:25.071Z,23.40
2024-01-21T09:54:52.258Z,23.66
2024-01-21T09:57:19.462Z,23.83
2024-01-21T09:59:47.894Z,23.93
2024-01-21T10:02:16.486Z,24.03
2024-01-21T10:04:44.277Z,24.12
2024-01-21T10:07:12.997Z,24.13
2024-01-21T10:09:41.922Z,24.17
2024-01-21T10:12:09.962Z,24.15
2024-01-21T10:14:37.174Z,24.10
2024-01-21T10:17:04.744Z,24.05
2024-01-21T10:19:33.767Z,23.84
2024-01-21T10:22:09.016Z,23.97
2024-01-21T10:24:38.282Z,23.92
2024-01-21T10:27:08.524Z,23.90
2024-01-21T10:29:37.012Z,23.73
2024-01-21T10:32:05.654Z,23.73
2024-01-21T10:34:33.140Z,23.65
2024-01-21T10:37:03.966Z,23.51
2024-01-21T10:39:32.553Z,23.35
2024-01-21T10:42:00.964Z,23.35
2024-01-21T10:45:01.369Z,23.27
2024-01-21T10:47:30.735Z,23.24
2024-01-21T10:49:58.281Z,23.44
2024-01-21T10:52:26.214Z,23.63
2024-01-21T10:54:54.538Z,23.77
2024-01-21T10:57:21.857Z,23.85
2024-01-21T10:59:51.974Z,24.02
2024-01-21T11:02:21.648Z,24.03
2024-01-21T11:04:49.199Z,24.13
2024-01-21T11:07:18.369Z,24.27
2024-01-21T11:09:46.839Z,24.29
2024-01-21T11:12:15.026Z,24.28
2024-01-21T11:14:42.559Z,24.19
2024-01-21T11:17:10.728Z,24.10
2024-01-21T11:19:44.557Z,24.08
2024-01-21T11:22:13.128Z,24.06
2024-01-21T11:24:42.179Z,24.21
2024-01-21T11:27:16.234Z,24.31
2024-01-21T11:29:43.642Z,24.31
2024-01-21T11:32:10.824Z,24.22
2024-01-21T11:34:42.402Z,24.21
2024-01-21T11:37:11.216Z,24.20
2024-01-21T11:39:38.840Z,24.18
2024-01-21T11:42:06.991Z,24.26
2024-01-21T11:44:35.591Z,24.35
2024-01-21T11:47:04.466Z,24.35
2024-01-21T11:49:33.030Z,24.44
2024-01-21T11:52:03.488Z,24.42
2024-01-21T11:54:30.655Z,24.44
2024-01-21T11:56:58.608Z,24.52
2024-01-21T11:59:25.890Z,24.58
2024-01-21T12:01:58.487Z,24.60
2024-01-21T12:04:26.623Z,24.59
2024-01-21T12:06:54.416Z,24.55
2024-01-21T12:09:24.043Z,24.48
2024-01-21T12:11:51.959Z,24.42
2024-01-21T12:14:21.944Z,24.33
2024-01-21T12:16:51.135Z,24.26
2024-01-21T12:19:19.642Z,24.20
2024-01-21T12:21:47.145Z,24.14
2024-01-21T12:24:15.058Z,24.07
2024-01-21T12:26:46.372Z,24.08
2024-01-21T12:29:13.520Z,24.00
2024-01-21T12:31:41.792Z,24.01
2024-01-21T12:34:10.934Z,23.89
2024-01-21T12:36:39.663Z,23.91
2024-01-21T12:39:06.827Z,23.61
2024-01-21T12:41:34.305Z,23.74
2024-01-21T12:44:03.371Z,23.73
2024-01-21T12:46:31.437Z,23.70
2024-01-21T12:48:58.839Z,23.57
2024-01-21T12:51:26.088Z,23.58
2024-01-21T12:53:54.323Z,23.45
2024-01-21T12:56:22.067Z,23.47
2024-01-21T12:58:50.533Z,23.34
2024-01-21T13:01:19.186Z,23.31
2024-01-21T13:03:47.481Z,23.30
2024-01-21T13:06:15.126Z,23.26
2024-01-21T13:08:42.998Z,23.27
2024-01-21T13:11:10.300Z,23.19
2024-01-21T13:13:37.445Z,23.25
2024-01-21T13:16:05.652Z,23.24
2024-01-21T13:18:34.541Z,23.08
2024-01-21T13:21:01.856Z,23.20
2024-01-21T13:23:29.023Z,23.20
2024-01-21T13:25:56.179Z,23.22
2024-01-21T13:28:23.376Z,23.17
2024-01-21T13:30:51.090Z,23.14
2024-01-21T13:33:20.291Z,23.11
2024-01-21T13:35:49.650Z,23.09
2024-01-21T13:38:20.407Z,23.02
2024-01-21T13:40:47.587Z,23.02
2024-01-21T13:43:14.969Z,23.00
2024-01-21T13:45:42.328Z,22.94
2024-01-21T13:48:10.292Z,22.98
2024-01-21T13:50:38.160Z,23.01
2024-01-21T13:53:07.150Z,22.98
2024-01-21T13:55:34.874Z,22.95
2024-01-21T13:58:02.084Z,22.91
2024-01-21T14:00:29.479Z,22.92
2024-01-21T14:02:57.725Z,23.02
2024-01-21T14:05:25.905Z,23.04
2024-01-21T14:07:53.606Z,23.02
2024-01-21T14:10:22.660Z,23.06
2024-01-21T14:12:50.260Z,22.97
2024-01-21T14:15:17.788Z,22.99
2024-01-21T14:17:44.992Z,22.99
2024-01-21T14:20:12.669Z,22.94
2024-01-21T14:22:40.866Z,22.96
2024-01-21T14:25:19.531Z,22.92
2024-01-21T14:27:48.501Z,22.88
2024-01-21T14:30:22.440Z,22.83
2024-01-21T14:32:49.950Z,22.83
2024-01-21T14:35:17.187Z,22.84
2024-01-21T14:37:44.457Z,23.05
2024-01-21T14:40:13.178Z,23.34
2024-01-21T14:42:40.426Z,23.59
2024-01-21T14:45:10.203Z,23.75
2024-01-21T14:47:37.596Z,23.81
2024-01-21T14:50:05.720Z,24.03
2024-01-21T14:52:32.880Z,24.09
2024-01-21T14:55:00.174Z,24.09
2024-01-21T14:57:28.228Z,24.07
2024-01-21T14:59:56.444Z,24.05
2024-01-21T15:02:25.046Z,24.07
2024-01-21T15:04:52.276Z,24.15
2024-01-21T15:07:19.557Z,24.25
2024-01-21T15:09:47.272Z,24.39
2024-01-21T15:12:14.503Z,24.46
2024-01-21T15:14:48.372Z,24.54
2024-01-21T15:17:15.573Z,24.68
2024-01-21T15:19:44.965Z,24.74
2024-01-21T15:22:12.672Z,25.00
2024-01-21T15:24:40.047Z,25.09
2024-01-21T15:27:07.696Z,25.09
2024-01-21T15:29:34.854Z,25.06
2024-01-21T15:32:02.445Z,24.96
2024-01-21T15:34:29.794Z,24.87
2024-01-21T15:36:58.541Z,24.82
2024-01-21T15:39:25.813Z,24.77
2024-01-21T15:41:53.405Z,24.48
2024-01-21T15:44:20.601Z,24.47
2024-01-21T15:46:47.792Z,24.55
2024-01-21T15:49:15.180Z,24.67
2024-01-21T15:51:43.447Z,24.85
2024-01-21T15:54:12.661Z,25.24
2024-01-21T15:56:39.863Z,25.26
2024-01-21T15:59:07.061Z,24.91
2024-01-21T16:01:34.378Z,24.74
2024-01-21T16:04:01.741Z,24.59
2024-01-21T16:06:29.574Z,24.50
2024-01-21T16:08:56.927Z,24.46
2024-01-21T16:11:25.585Z,24.27
2024-01-21T16:13:52.872Z,24.19
2024-01-21T16:16:20.042Z,24.16
2024-01-21T16:18:47.364Z,24.11
2024-01-21T16:21:15.321Z,24.04
2024-01-21T16:23:42.643Z,23.97
2024-01-21T16:26:09.964Z,23.92
2024-01-21T16:28:38.640Z,23.84
2024-01-21T16:31:05.963Z,23.75
2024-01-21T16:33:33.268Z,23.59
2024-01-21T16:36:00.510Z,23.58
2024-01-21T16:38:27.678Z,23.47
2024-01-21T16:40:55.233Z,23.48
2024-01-21T16:43:23.703Z,23.44
2024-01-21T16:45:53.001Z,23.47
2024-01-21T16:48:20.395Z,23.41
2024-01-21T16:50:48.385Z,23.48
2024-01-21T16:53:23.258Z,23.29
2024-01-21T16:55:50.452Z,23.28
2024-01-21T16:58:17.594Z,23.31
2024-01-21T17:00:45.753Z,23.28
2024-01-21T17:03:15.450Z,23.28
2024-01-21T17:05:42.818Z,23.24
2024-01-21T17:08:10.188Z,23.23
2024-01-21T17:10:43.370Z,23.20
2024-01-21T17:13:10.683Z,23.16
2024-01-21T17:15:37.834Z,23.10
2024-01-21T17:18:13.222Z,23.03
2024-01-21T17:20:41.854Z,23.00
2024-01-21T17:23:09.001Z,22.98
2024-01-21T17:25:36.200Z,22.99
2024-01-21T17:28:03.692Z,22.97
2024-01-21T17:30:30.851Z,23.00
2024-01-21T17:32:58.204Z,22.99
2024-01-21T17:35:25.707Z,22.95
2024-01-21T17:37:54.192Z,23.05
2024-01-21T17:40:21.332Z,23.10
2024-01-21T17:42:48.574Z,23.08
2024-01-21T17:45:16.361Z,23.04
2024-01-21T17:47:43.777Z,23.02
2024-01-21T17:50:11.037Z,23.02
2024-01-21T17:52:38.204Z,22.92
2024-01-21T17:55:07.326Z,22.99
2024-01-21T17:57:34.511Z,22.94
2024-01-21T18:00:02.066Z,22.92
2024-01-21T18:02:29.279Z,23.08
2024-01-21T18:04:56.531Z,23.33
2024-01-21T18:07:23.685Z,23.71
2024-01-21T18:09:50.924Z,23.96
2024-01-21T18:12:19.415Z,24.17
2024-01-21T18:14:46.767Z,24.34
2024-01-21T18:17:14.327Z,24.55
2024-01-21T18:19:42.821Z,24.66
2024-01-21T18:22:10.132Z,24.67
2024-01-21T18:24:37.306Z,24.71
2024-01-21T18:27:05.175Z,24.72
2024-01-21T18:32:01.978Z,24.53
2024-01-21T18:34:29.330Z,24.57
2024-01-21T18:36:56.596Z,24.58
2024-01-21T18:39:23.740Z,24.48
2024-01-21T18:41:50.976Z,24.47
2024-01-21T18:44:18.120Z,24.35
2024-01-21T18:46:46.630Z,24.29
2024-01-21T18:49:13.951Z,24.24
2024-01-21T18:51:41.345Z,24.23
2024-01-21T18:54:08.594Z,24.18
2024-01-21T18:56:35.833Z,24.01
2024-01-21T18:59:03.048Z,24.00
2024-01-21T19:01:30.218Z,23.87
2024-01-21T19:03:58.888Z,23.88
2024-01-21T19:06:26.081Z,23.86
2024-01-21T19:08:53.318Z,23.73
2024-01-21T19:11:20.738Z,23.67
2024-01-21T19:13:47.923Z,23.63
2024-01-21T19:16:15.117Z,23.52
2024-01-21T19:18:44.238Z,23.44
2024-01-21T19:21:14.759Z,23.47
2024-01-21T19:23:42.000Z,23.39
2024-01-21T19:26:09.144Z,23.41
2024-01-21T19:28:36.315Z,23.39
2024-01-21T19:31:03.605Z,23.38
2024-01-21T19:33:30.814Z,23.24
2024-01-21T19:35:58.053Z,23.12
2024-01-21T19:38:26.608Z,23.29
2024-01-21T19:40:54.135Z,23.26
2024-01-21T19:43:21.302Z,23.21
2024-01-21T19:45:48.445Z,23.25
2024-01-21T19:48:15.702Z,23.15
2024-01-21T19:50:43.111Z,23.15
2024-01-21T19:53:10.363Z,23.17
2024-01-21T19:55:38.887Z,23.10
2024-01-21T19:58:06.056Z,23.09
2024-01-21T20:00:33.248Z,23.03
2024-01-21T20:03:00.573Z,23.03
2024-01-21T20:05:27.877Z,23.09
2024-01-21T20:07:55.066Z,23.04
2024-01-21T20:10:22.927Z,23.00
2024-01-21T20:12:51.608Z,22.98
2024-01-21T20:15:18.769Z,22.97
2024-01-21T20:17:46.068Z,22.97
2024-01-21T20:20:13.353Z,23.02
2024-01-21T20:22:40.512Z,23.06
2024-01-21T20:25:08.346Z,23.03
2024-01-21T20:27:35.641Z,23.03
2024-01-21T20:30:05.098Z,23.02
2024-01-21T20:32:32.630Z,23.05
2024-01-21T20:35:00.240Z,22.98
2024-01-21T20:37:27.470Z,22.90
2024-01-21T20:39:54.882Z,22.94
2024-01-21T20:42:22.064Z,22.87
2024-01-21T20:44:49.261Z,22.87
2024-01-21T20:47:17.845Z,22.90
2024-01-21T20:49:45.368Z,22.66
2024-01-21T20:52:12.599Z,22.75
2024-01-21T20:54:39.819Z,22.66
2024-01-21T20:57:07.355Z,22.74
2024-01-21T20:59:34.669Z,22.72
2024-01-21T21:02:01.876Z,22.71
2024-01-21T21:04:30.607Z,22.70
2024-01-21T21:06:57.925Z,22.72
2024-01-21T21:09:25.193Z,22.66
2024-01-21T21:11:52.414Z,22.66
2024-01-21T21:14:20.038Z,22.69
2024-01-21T21:16:47.207Z,22.74
2024-01-21T21:19:15.290Z,22.69
2024-01-21T21:21:44.935Z,22.71
2024-01-21T21:24:12.890Z,22.69
2024-01-21T21:26:40.472Z,22.66
2024-01-21T21:29:07.928Z,22.64
2024-01-21T21:31:35.235Z,22.65
2024-01-21T21:34:02.867Z,22.61
2024-01-21T21:36:30.109Z,22.56
2024-01-21T21:38:58.603Z,22.54
2024-01-21T21:41:25.771Z,22.53
2024-01-21T21:43:52.910Z,22.45
2024-01-21T21:46:20.081Z,22.44
2024-01-21T21:48:47.486Z,22.45
2024-01-21T21:51:15.632Z,22.42
2024-01-21T21:53:43.241Z,22.44
2024-01-21T21:56:12.510Z,22.41
2024-01-21T21:58:39.812Z,22.36
2024-01-21T22:01:07.358Z,22.38
2024-01-21T22:03:36.782Z,22.35
2024-01-21T22:06:05.719Z,22.37
2024-01-21T22:08:34.776Z,22.40
2024-01-21T22:11:02.877Z,22.45
2024-01-21T22:13:33.168Z,22.41
2024-01-21T22:16:00.519Z,22.40
2024-01-21T22:18:27.859Z,22.26
2024-01-21T22:20:55.308Z,22.37
2024-01-21T22:23:23.345Z,22.39
2024-01-21T22:25:50.508Z,22.37
2024-01-21T22:28:17.657Z,22.31
2024-01-21T22:30:46.140Z,22.32
2024-01-21T22:33:13.581Z,22.33
2024-01-21T22:35:40.869Z,22.28
2024-01-21T22:38:08.051Z,22.27
2024-01-21T22:40:35.408Z,22.26
2024-01-21T22:43:02.630Z,22.20
2024-01-21T22:45:29.818Z,22.18
2024-01-21T22:47:58.598Z,22.15
2024-01-21T22:50:25.797Z,22.11
2024-01-21T22:52:52.959Z,22.18
2024-01-21T22:55:20.250Z,22.15
2024-01-21T22:57:47.434Z,22.15
2024-01-21T23:00:16.046Z,22.15
2024-01-21T23:05:11.708Z,22.13
2024-01-21T23:07:38.896Z,22.13
2024-01-21T23:10:06.967Z,22.16
2024-01-21T23:12:34.192Z,22.08
2024-01-21T23:15:01.598Z,22.14
2024-01-21T23:17:28.906Z,22.05
2024-01-21T23:19:56.082Z,21.94
2024-01-21T23:22:24.643Z,22.09
2024-01-21T23:24:52.093Z,22.07
2024-01-21T23:27:19.302Z,22.08
2024-01-21T23:29:46.609Z,22.03
2024-01-21T23:32:14.735Z,22.03
2024-01-21T23:34:42.058Z,22.01
2024-01-21T23:37:09.634Z,21.99
2024-01-21T23:39:38.133Z,21.85
2024-01-21T23:42:05.643Z,21.89
2024-01-21T23:44:32.814Z,21.85
2024-01-21T23:47:00.002Z,21.92
2024-01-21T23:49:27.146Z,21.86
2024-01-21T23:51:54.332Z,21.85
2024-01-21T23:54:21.516Z,21.86
2024-01-21T23:56:50.741Z,21.82
2024-01-21T23:59:18.270Z,21.90
